createdAt,value
2023-03-30T00:00:47.003Z,1022.3
2023-03-30T00:02:47.186Z,1022.3
2023-03-30T00:04:47.169Z,1022.3
2023-03-30T00:06:47.019Z,1022.3
2023-03-30T00:08:46.982Z,1022.4
2023-03-30T00:10:46.978Z,1022.4
2023-03-30T00:12:47.003Z,1022.5
2023-03-30T00:15:16.703Z,1022.5
2023-03-30T00:16:47.011Z,1022.6
2023-03-30T00:18:47.013Z,1022.6
2023-03-30T00:20:46.956Z,1022.6
2023-03-30T00:22:46.990Z,1022.6
2023-03-30T00:24:46.994Z,1022.6
2023-03-30T00:26:46.950Z,1022.7
2023-03-30T00:28:46.939Z,1022.8
2023-03-30T00:30:46.980Z,1022.8
2023-03-30T00:32:46.955Z,1022.8
2023-03-30T00:34:46.932Z,1022.8
2023-03-30T00:36:46.976Z,1022.9
2023-03-30T00:38:46.987Z,1022.9
2023-03-30T00:40:47.004Z,1022.9
2023-03-30T00:42:46.981Z,1023
2023-03-30T00:44:46.971Z,1023.1
2023-03-30T00:46:46.950Z,1023.1
2023-03-30T00:49:09.671Z,1023.2
2023-03-30T00:50:46.960Z,1023.2
2023-03-30T00:52:46.950Z,1023.2
2023-03-30T00:54:46.947Z,1023.2
2023-03-30T00:56:46.954Z,1023.2
2023-03-30T00:58:46.969Z,1023.3
2023-03-30T01:00:47.048Z,1023.2
2023-03-30T01:02:47.121Z,1023.3
2023-03-30T01:04:47.000Z,1023.4
2023-03-30T01:06:46.989Z,1023.4
2023-03-30T01:08:47.035Z,1023.4
2023-03-30T01:10:47.024Z,1023.4
2023-03-30T01:13:03.726Z,1023.5
2023-03-30T01:14:47.054Z,1023.5
2023-03-30T01:16:48.889Z,1023.5
2023-03-30T01:18:47.043Z,1023.5
2023-03-30T01:20:47.002Z,1023.5
2023-03-30T01:22:47.006Z,1023.5
2023-03-30T01:24:46.979Z,1023.5
2023-03-30T01:26:46.980Z,1023.5
2023-03-30T01:28:47.023Z,1023.5
2023-03-30T01:30:46.939Z,1023.5
2023-03-30T01:32:47.003Z,1023.5
2023-03-30T01:34:46.981Z,1023.5
2023-03-30T01:36:47.003Z,1023.5
2023-03-30T01:38:47.056Z,1023.5
2023-03-30T01:40:46.991Z,1023.5
2023-03-30T01:42:46.966Z,1023.4
2023-03-30T01:44:46.940Z,1023.4
2023-03-30T01:46:47.068Z,1023.3
2023-03-30T01:47:42.063Z,1023.3
2023-03-30T01:48:46.987Z,1023.4
2023-03-30T01:50:46.957Z,1023.4
2023-03-30T01:52:48.054Z,1023.4
2023-03-30T01:54:47.121Z,1023.4
2023-03-30T01:56:46.986Z,1023.4
2023-03-30T01:58:46.936Z,1023.4
2023-03-30T02:00:46.956Z,1023.4
2023-03-30T02:02:46.929Z,1023.4
2023-03-30T02:04:46.914Z,1023.4
2023-03-30T02:06:46.920Z,1023.4
2023-03-30T02:08:14.047Z,1023.4
2023-03-30T02:08:46.916Z,1023.3
2023-03-30T02:10:46.913Z,1023.3
2023-03-30T02:12:46.909Z,1023.3
2023-03-30T02:14:46.900Z,1023.3
2023-03-30T02:16:47.066Z,1023.3
2023-03-30T02:18:46.940Z,1023.2
2023-03-30T02:20:21.544Z,1023.2
2023-03-30T02:20:46.959Z,1023.2
2023-03-30T02:22:46.907Z,1023.2
2023-03-30T02:24:46.858Z,1023.1
2023-03-30T02:26:46.941Z,1023.1
2023-03-30T02:28:46.934Z,1023.1
2023-03-30T02:30:46.954Z,1023.1
2023-03-30T02:32:46.918Z,1023.1
2023-03-30T02:34:46.930Z,1023
2023-03-30T02:36:46.920Z,1022.9
2023-03-30T02:38:46.930Z,1022.9
2023-03-30T02:40:46.862Z,1022.9
2023-03-30T02:42:46.902Z,1022.8
2023-03-30T02:44:46.881Z,1022.9
2023-03-30T02:46:46.887Z,1022.8
2023-03-30T02:48:46.881Z,1022.8
2023-03-30T02:50:47.019Z,1022.8
2023-03-30T02:52:46.878Z,1022.7
2023-03-30T02:55:20.441Z,1022.7
2023-03-30T02:56:46.825Z,1022.7
2023-03-30T02:58:46.840Z,1022.7
2023-03-30T03:00:46.860Z,1022.6
2023-03-30T03:02:52.463Z,1022.6
2023-03-30T03:04:46.868Z,1022.6
2023-03-30T03:06:46.867Z,1022.6
2023-03-30T03:08:46.880Z,1022.6
2023-03-30T03:10:46.841Z,1022.6
2023-03-30T03:12:46.843Z,1022.6
2023-03-30T03:14:46.887Z,1022.6
2023-03-30T03:16:35.249Z,1022.6
2023-03-30T03:19:09.735Z,1022.5
2023-03-30T03:20:46.768Z,1022.5
2023-03-30T03:22:46.830Z,1022.5
2023-03-30T03:24:46.818Z,1022.5
2023-03-30T03:26:46.804Z,1022.5
2023-03-30T03:28:46.821Z,1022.5
2023-03-30T03:30:46.793Z,1022.5
2023-03-30T03:33:20.196Z,1022.4
2023-03-30T03:34:46.809Z,1022.4
2023-03-30T03:36:46.853Z,1022.4
2023-03-30T03:38:46.762Z,1022.4
2023-03-30T03:40:46.856Z,1022.4
2023-03-30T03:42:46.835Z,1022.3
2023-03-30T03:44:46.794Z,1022.4
2023-03-30T03:46:46.857Z,1022.3
2023-03-30T03:48:46.818Z,1022.4
2023-03-30T03:50:46.847Z,1022.4
2023-03-30T03:52:46.730Z,1022.4
2023-03-30T03:54:46.778Z,1022.4
2023-03-30T03:56:46.807Z,1022.4
2023-03-30T03:58:46.771Z,1022.4
2023-03-30T04:00:46.858Z,1022.3
2023-03-30T04:02:46.902Z,1022.3
2023-03-30T04:04:52.100Z,1022.3
2023-03-30T04:06:46.775Z,1022.3
2023-03-30T04:08:46.732Z,1022.4
2023-03-30T04:10:46.798Z,1022.4
2023-03-30T04:12:48.880Z,1022.4
2023-03-30T04:14:46.786Z,1022.4
2023-03-30T04:16:46.926Z,1022.4
2023-03-30T04:18:46.800Z,1022.5
2023-03-30T04:20:46.761Z,1022.5
2023-03-30T04:22:46.745Z,1022.5
2023-03-30T04:24:46.785Z,1022.5
2023-03-30T04:26:46.760Z,1022.5
2023-03-30T04:28:48.369Z,1022.5
2023-03-30T04:30:46.756Z,1022.5
2023-03-30T04:32:46.782Z,1022.6
2023-03-30T04:34:46.734Z,1022.5
2023-03-30T04:37:06.199Z,1022.5
2023-03-30T04:38:46.730Z,1022.5
2023-03-30T04:40:46.692Z,1022.5
2023-03-30T04:42:46.819Z,1022.5
2023-03-30T04:44:48.117Z,1022.5
2023-03-30T04:46:55.976Z,1022.6
2023-03-30T04:48:46.745Z,1022.6
2023-03-30T04:50:46.666Z,1022.6
2023-03-30T04:52:53.140Z,1022.6
2023-03-30T04:54:46.706Z,1022.6
2023-03-30T04:56:46.789Z,1022.6
2023-03-30T04:58:46.749Z,1022.6
2023-03-30T05:00:46.689Z,1022.6
2023-03-30T05:02:46.837Z,1022.6
2023-03-30T05:04:46.776Z,1022.6
2023-03-30T05:06:46.719Z,1022.6
2023-03-30T05:08:46.776Z,1022.6
2023-03-30T05:10:46.654Z,1022.6
2023-03-30T05:12:46.708Z,1022.6
2023-03-30T05:14:46.722Z,1022.6
2023-03-30T05:16:46.680Z,1022.6
2023-03-30T05:18:47.331Z,1022.6
2023-03-30T05:20:46.682Z,1022.6
2023-03-30T05:22:46.686Z,1022.6
2023-03-30T05:24:26.062Z,1022.6
2023-03-30T05:26:46.663Z,1022.5
2023-03-30T05:28:46.741Z,1022.5
2023-03-30T05:30:46.770Z,1022.5
2023-03-30T05:32:46.715Z,1022.5
2023-03-30T05:34:46.674Z,1022.5
2023-03-30T05:36:54.207Z,1022.5
2023-03-30T05:38:54.552Z,1022.4
2023-03-30T05:40:46.636Z,1022.4
2023-03-30T05:42:46.724Z,1022.4
2023-03-30T05:44:46.687Z,1022.4
2023-03-30T05:46:46.656Z,1022.4
2023-03-30T05:48:59.793Z,1022.4
2023-03-30T05:50:46.636Z,1022.4
2023-03-30T05:52:46.684Z,1022.4
2023-03-30T05:54:46.700Z,1022.4
2023-03-30T05:56:46.738Z,1022.4
2023-03-30T05:58:46.684Z,1022.4
2023-03-30T06:00:46.619Z,1022.4
2023-03-30T06:01:31.609Z,1022.4
2023-03-30T06:02:45.510Z,1022.4
2023-03-30T06:02:46.621Z,1022.3
2023-03-30T06:04:46.762Z,1022.4
2023-03-30T06:06:46.642Z,1022.3
2023-03-30T06:08:46.625Z,1022.3
2023-03-30T06:10:46.726Z,1022.3
2023-03-30T06:12:46.676Z,1022.3
2023-03-30T06:14:46.615Z,1022.3
2023-03-30T06:16:46.764Z,1022.3
2023-03-30T06:18:46.646Z,1022.3
2023-03-30T06:19:40.596Z,1022.3
2023-03-30T06:21:14.824Z,1022.3
2023-03-30T06:22:46.579Z,1022.3
2023-03-30T06:24:46.532Z,1022.3
2023-03-30T06:26:46.588Z,1022.3
2023-03-30T06:28:46.686Z,1022.3
2023-03-30T06:30:46.543Z,1022.3
2023-03-30T06:32:46.670Z,1022.3
2023-03-30T06:34:46.587Z,1022.4
2023-03-30T06:36:46.657Z,1022.4
2023-03-30T06:38:46.701Z,1022.4
2023-03-30T06:40:46.548Z,1022.3
2023-03-30T06:42:46.509Z,1022.3
2023-03-30T06:44:48.114Z,1022.3
2023-03-30T06:46:46.601Z,1022.3
2023-03-30T06:48:47.604Z,1022.4
2023-03-30T06:50:46.524Z,1022.3
2023-03-30T06:52:46.592Z,1022.4
2023-03-30T06:54:46.584Z,1022.3
2023-03-30T06:56:46.522Z,1022.4
2023-03-30T06:58:46.558Z,1022.4
2023-03-30T07:00:55.704Z,1022.4
2023-03-30T07:01:04.870Z,1022.4
2023-03-30T07:04:46.621Z,1022.4
2023-03-30T07:06:46.522Z,1022.4
2023-03-30T07:08:46.478Z,1022.4
2023-03-30T07:10:46.488Z,1022.4
2023-03-30T07:12:46.468Z,1022.4
2023-03-30T07:14:46.538Z,1022.4
2023-03-30T07:16:46.530Z,1022.4
2023-03-30T07:18:46.571Z,1022.4
2023-03-30T07:20:46.511Z,1022.4
2023-03-30T07:22:46.477Z,1022.4
2023-03-30T07:24:46.452Z,1022.4
2023-03-30T07:26:46.415Z,1022.4
2023-03-30T07:28:46.519Z,1022.5
2023-03-30T07:30:46.449Z,1022.4
2023-03-30T07:32:46.530Z,1022.4
2023-03-30T07:34:46.466Z,1022.4
2023-03-30T07:36:46.480Z,1022.5
2023-03-30T07:38:46.480Z,1022.5
2023-03-30T07:40:46.450Z,1022.5
2023-03-30T07:42:46.461Z,1022.5
2023-03-30T07:44:46.546Z,1022.5
2023-03-30T07:46:46.558Z,1022.5
2023-03-30T07:47:46.577Z,1022.5
2023-03-30T07:48:46.550Z,1022.5
2023-03-30T07:50:46.448Z,1022.6
2023-03-30T07:52:46.408Z,1022.6
2023-03-30T07:54:46.428Z,1022.6
2023-03-30T07:56:46.467Z,1022.6
2023-03-30T07:58:46.481Z,1022.6
2023-03-30T08:00:46.411Z,1022.6
2023-03-30T08:02:46.454Z,1022.7
2023-03-30T08:04:46.521Z,1022.7
2023-03-30T08:06:46.420Z,1022.7
2023-03-30T08:08:46.477Z,1022.7
2023-03-30T08:10:46.471Z,1022.7
2023-03-30T08:12:46.479Z,1022.8
2023-03-30T08:14:46.527Z,1022.8
2023-03-30T08:16:46.485Z,1022.8
2023-03-30T08:18:46.439Z,1022.8
2023-03-30T08:20:46.432Z,1022.8
2023-03-30T08:22:46.422Z,1022.8
2023-03-30T08:24:46.452Z,1022.9
2023-03-30T08:26:46.469Z,1022.9
2023-03-30T08:28:46.439Z,1022.9
2023-03-30T08:31:15.787Z,1022.9
2023-03-30T08:32:46.435Z,1023
2023-03-30T08:34:46.358Z,1023
2023-03-30T08:36:46.401Z,1023.1
2023-03-30T08:38:46.383Z,1023.1
2023-03-30T08:40:46.472Z,1023.2
2023-03-30T08:42:46.479Z,1023.1
2023-03-30T08:44:46.419Z,1023.2
2023-03-30T08:46:46.384Z,1023.2
2023-03-30T08:48:46.449Z,1023.2
2023-03-30T08:50:46.444Z,1023.2
2023-03-30T08:52:46.401Z,1023.3
2023-03-30T08:54:59.649Z,1023.3
2023-03-30T08:56:46.486Z,1023.4
2023-03-30T08:58:46.386Z,1023.4
2023-03-30T09:00:46.361Z,1023.4
2023-03-30T09:02:46.381Z,1023.4
2023-03-30T09:04:46.464Z,1023.4
2023-03-30T09:06:46.459Z,1023.5
2023-03-30T09:08:46.345Z,1023.5
2023-03-30T09:10:46.457Z,1023.6
2023-03-30T09:12:46.335Z,1023.6
2023-03-30T09:14:46.393Z,1023.6
2023-03-30T09:16:46.348Z,1023.6
2023-03-30T09:18:46.397Z,1023.6
2023-03-30T09:20:46.348Z,1023.6
2023-03-30T09:22:46.377Z,1023.7
2023-03-30T09:24:46.390Z,1023.7
2023-03-30T09:26:46.281Z,1023.8
2023-03-30T09:28:46.331Z,1024
2023-03-30T09:30:46.395Z,1024.3
2023-03-30T09:32:46.410Z,1024.3
2023-03-30T09:34:46.324Z,1024.4
2023-03-30T09:36:06.558Z,1024.4
2023-03-30T09:38:46.337Z,1024.4
2023-03-30T09:40:46.394Z,1024.4
2023-03-30T09:42:46.388Z,1024.5
2023-03-30T09:44:46.373Z,1024.5
2023-03-30T09:46:46.412Z,1024.5
2023-03-30T09:48:46.292Z,1024.5
2023-03-30T09:50:11.985Z,1024.5
2023-03-30T09:52:46.313Z,1024.6
2023-03-30T09:54:46.288Z,1024.6
2023-03-30T09:56:46.324Z,1024.6
2023-03-30T09:58:21.792Z,1024.6
2023-03-30T10:00:46.343Z,1024.7
2023-03-30T10:02:46.335Z,1024.7
2023-03-30T10:04:44.788Z,1024.7
2023-03-30T10:06:46.315Z,1024.7
2023-03-30T10:08:06.189Z,1024.7
2023-03-30T10:08:58.436Z,1024.8
2023-03-30T10:10:46.278Z,1024.8
2023-03-30T10:12:46.367Z,1024.8
2023-03-30T10:14:46.277Z,1024.9
2023-03-30T10:16:46.335Z,1025
2023-03-30T10:18:46.327Z,1025
2023-03-30T10:20:46.209Z,1025
2023-03-30T10:22:46.270Z,1025.1
2023-03-30T10:23:59.717Z,1025.1
2023-03-30T10:25:22.012Z,1025.1
2023-03-30T10:26:46.289Z,1025.1
2023-03-30T10:28:46.352Z,1025.2
2023-03-30T10:30:46.309Z,1025.2
2023-03-30T10:32:46.302Z,1025.2
2023-03-30T10:35:18.355Z,1025.3
2023-03-30T10:36:47.833Z,1025.3
2023-03-30T10:38:46.270Z,1025.4
2023-03-30T10:40:46.276Z,1025.4
2023-03-30T10:42:46.263Z,1025.5
2023-03-30T10:44:46.268Z,1025.5
2023-03-30T10:46:18.589Z,1025.5
2023-03-30T10:46:46.228Z,1025.5
2023-03-30T10:48:46.224Z,1025.6
2023-03-30T10:50:46.471Z,1025.6
2023-03-30T10:52:56.225Z,1025.7
2023-03-30T10:54:19.197Z,1025.7
2023-03-30T10:56:46.254Z,1025.8
2023-03-30T10:58:46.188Z,1025.8
2023-03-30T11:00:46.239Z,1025.8
2023-03-30T11:02:46.347Z,1025.9
2023-03-30T11:04:46.204Z,1025.9
2023-03-30T11:07:12.571Z,1026
2023-03-30T11:08:46.198Z,1026
2023-03-30T11:10:46.135Z,1026
2023-03-30T11:12:46.152Z,1026.1
2023-03-30T11:14:46.157Z,1026.1
2023-03-30T11:16:46.181Z,1026.1
2023-03-30T11:18:46.247Z,1026.2
2023-03-30T11:20:46.205Z,1026.2
2023-03-30T11:22:46.179Z,1026.3
2023-03-30T11:24:46.144Z,1026.4
2023-03-30T11:26:46.175Z,1026.4
2023-03-30T11:28:52.493Z,1026.4
2023-03-30T11:30:46.144Z,1026.4
2023-03-30T11:32:46.195Z,1026.4
2023-03-30T11:34:46.181Z,1026.6
2023-03-30T11:36:54.611Z,1026.6
2023-03-30T11:37:02.585Z,1026.6
2023-03-30T11:38:46.235Z,1026.6
2023-03-30T11:39:41.227Z,1026.6
2023-03-30T11:40:46.199Z,1026.6
2023-03-30T11:42:46.315Z,1026.7
2023-03-30T11:44:46.172Z,1026.8
2023-03-30T11:46:46.227Z,1026.9
2023-03-30T11:48:46.164Z,1026.8
2023-03-30T11:50:46.204Z,1026.9
2023-03-30T11:52:07.388Z,1026.9
2023-03-30T11:53:19.903Z,1026.9
2023-03-30T11:55:03.313Z,1026.9
2023-03-30T11:56:19.172Z,1026.9
2023-03-30T11:57:32.536Z,1026.9
2023-03-30T11:58:46.196Z,1026.9
2023-03-30T12:00:46.185Z,1027.1
2023-03-30T12:03:10.803Z,1027
2023-03-30T12:05:14.973Z,1027.1
2023-03-30T12:06:46.251Z,1027.1
2023-03-30T12:07:50.076Z,1027.1
2023-03-30T12:10:46.132Z,1027.3
2023-03-30T12:12:46.176Z,1027.3
2023-03-30T12:14:28.298Z,1027.3
2023-03-30T12:14:46.154Z,1027.4
2023-03-30T12:17:13.764Z,1027.4
2023-03-30T12:18:46.128Z,1027.5
2023-03-30T12:20:46.187Z,1027.5
2023-03-30T12:22:46.112Z,1027.6
2023-03-30T12:24:46.143Z,1027.5
2023-03-30T12:26:51.774Z,1027.6
2023-03-30T12:29:04.855Z,1027.7
2023-03-30T12:30:46.131Z,1027.6
2023-03-30T12:32:46.154Z,1027.7
2023-03-30T12:34:46.066Z,1027.7
2023-03-30T12:36:46.092Z,1027.8
2023-03-30T12:38:46.162Z,1027.8
2023-03-30T12:40:46.180Z,1027.9
2023-03-30T12:42:46.418Z,1027.9
2023-03-30T12:44:46.110Z,1027.8
2023-03-30T12:46:46.128Z,1027.8
2023-03-30T12:48:46.132Z,1027.9
2023-03-30T12:50:46.105Z,1027.9
2023-03-30T12:52:46.094Z,1027.9
2023-03-30T12:53:47.890Z,1027.9
2023-03-30T12:54:46.097Z,1028
2023-03-30T12:56:40.483Z,1028
2023-03-30T12:58:46.059Z,1028.1
2023-03-30T13:00:46.094Z,1028.1
2023-03-30T13:02:46.080Z,1028.1
2023-03-30T13:04:46.118Z,1028.2
2023-03-30T13:06:46.122Z,1028.1
2023-03-30T13:08:46.097Z,1028.2
2023-03-30T13:10:46.048Z,1028.2
2023-03-30T13:12:46.098Z,1028.1
2023-03-30T13:14:46.139Z,1028.2
2023-03-30T13:16:46.212Z,1028.2
2023-03-30T13:18:46.024Z,1028.2
2023-03-30T13:20:46.129Z,1028.2
2023-03-30T13:22:46.079Z,1028.4
2023-03-30T13:24:45.976Z,1028.3
2023-03-30T13:26:46.052Z,1028.4
2023-03-30T13:28:46.040Z,1028.4
2023-03-30T13:30:46.067Z,1028.5
2023-03-30T13:32:46.208Z,1028.5
2023-03-30T13:34:51.636Z,1028.5
2023-03-30T13:36:46.087Z,1028.6
2023-03-30T13:38:45.992Z,1028.7
2023-03-30T13:40:57.853Z,1028.7
2023-03-30T13:42:46.054Z,1028.7
2023-03-30T13:44:45.990Z,1028.7
2023-03-30T13:45:43.008Z,1028.7
2023-03-30T13:46:46.101Z,1028.7
2023-03-30T13:48:45.944Z,1028.7
2023-03-30T13:50:46.004Z,1028.7
2023-03-30T13:51:46.920Z,1028.7
2023-03-30T13:53:17.000Z,1028.7
2023-03-30T13:54:46.015Z,1028.9
2023-03-30T13:56:46.069Z,1028.9
2023-03-30T13:58:46.005Z,1028.9
2023-03-30T14:00:48.107Z,1029
2023-03-30T14:02:46.026Z,1029
2023-03-30T14:04:46.067Z,1029.1
2023-03-30T14:06:46.054Z,1029
2023-03-30T14:08:45.965Z,1029.1
2023-03-30T14:10:45.974Z,1029
2023-03-30T14:12:47.246Z,1029.1
2023-03-30T14:14:46.006Z,1029.1
2023-03-30T14:16:45.964Z,1029.1
2023-03-30T14:18:46.007Z,1029.1
2023-03-30T14:20:46.008Z,1029.2
2023-03-30T14:22:46.008Z,1029.2
2023-03-30T14:24:46.009Z,1029.2
2023-03-30T14:26:45.989Z,1029.2
2023-03-30T14:28:45.988Z,1029.2
2023-03-30T14:30:45.938Z,1029.3
2023-03-30T14:32:46.057Z,1029.4
2023-03-30T14:34:45.958Z,1029.4
2023-03-30T14:37:04.819Z,1029.5
2023-03-30T14:38:45.896Z,1029.5
2023-03-30T14:40:45.986Z,1029.3
2023-03-30T14:42:45.956Z,1029.4
2023-03-30T14:44:45.885Z,1029.5
2023-03-30T14:46:45.966Z,1029.5
2023-03-30T14:48:45.951Z,1029.5
2023-03-30T14:50:45.941Z,1029.4
2023-03-30T14:52:46.010Z,1029.6
2023-03-30T14:54:54.437Z,1029.6
2023-03-30T14:56:45.994Z,1029.6
2023-03-30T14:58:45.968Z,1029.6
2023-03-30T15:00:46.036Z,1029.6
2023-03-30T15:02:46.002Z,1029.6
2023-03-30T15:04:46.060Z,1029.6
2023-03-30T15:06:46.020Z,1029.6
2023-03-30T15:08:45.982Z,1029.7
2023-03-30T15:10:45.935Z,1029.6
2023-03-30T15:12:45.927Z,1029.8
2023-03-30T15:14:45.950Z,1029.6
2023-03-30T15:16:45.985Z,1029.6
2023-03-30T15:18:45.943Z,1029.7
2023-03-30T15:20:45.949Z,1029.6
2023-03-30T15:22:45.927Z,1029.6
2023-03-30T15:24:45.886Z,1029.6
2023-03-30T15:26:45.910Z,1029.6
2023-03-30T15:28:45.906Z,1029.6
2023-03-30T15:30:45.979Z,1029.5
2023-03-30T15:32:46.063Z,1029.6
2023-03-30T15:34:45.959Z,1029.6
2023-03-30T15:36:45.945Z,1029.6
2023-03-30T15:38:45.927Z,1029.7
2023-03-30T15:40:45.961Z,1029.7
2023-03-30T15:42:46.025Z,1029.7
2023-03-30T15:44:45.885Z,1029.9
2023-03-30T15:46:46.072Z,1029.8
2023-03-30T15:48:45.891Z,1029.9
2023-03-30T15:50:45.875Z,1029.8
2023-03-30T15:52:45.844Z,1029.8
2023-03-30T15:54:45.884Z,1029.9
2023-03-30T15:56:45.860Z,1029.9
2023-03-30T15:58:45.774Z,1029.8
2023-03-30T16:00:45.854Z,1029.8
2023-03-30T16:02:45.890Z,1029.8
2023-03-30T16:04:45.905Z,1029.8
2023-03-30T16:06:47.282Z,1029.8
2023-03-30T16:08:45.891Z,1029.8
2023-03-30T16:10:45.906Z,1029.8
2023-03-30T16:12:45.835Z,1029.9
2023-03-30T16:14:45.830Z,1029.8
2023-03-30T16:16:45.959Z,1029.8
2023-03-30T16:18:45.850Z,1029.7
2023-03-30T16:20:45.869Z,1029.8
2023-03-30T16:22:45.887Z,1029.8
2023-03-30T16:24:45.953Z,1029.8
2023-03-30T16:26:45.797Z,1029.8
2023-03-30T16:29:15.373Z,1029.8
2023-03-30T16:31:04.261Z,1029.7
2023-03-30T16:32:45.821Z,1029.7
2023-03-30T16:34:45.894Z,1029.7
2023-03-30T16:36:45.900Z,1029.8
2023-03-30T16:38:45.939Z,1029.8
2023-03-30T16:40:45.810Z,1029.7
2023-03-30T16:42:45.813Z,1029.6
2023-03-30T16:44:46.004Z,1029.6
2023-03-30T16:45:34.032Z,1029.6
2023-03-30T16:46:45.915Z,1029.6
2023-03-30T16:48:31.062Z,1029.6
2023-03-30T16:50:45.971Z,1029.6
2023-03-30T16:52:45.860Z,1029.6
2023-03-30T16:54:45.891Z,1029.6
2023-03-30T16:56:46.148Z,1029.6
2023-03-30T16:58:45.899Z,1029.6
2023-03-30T17:00:45.897Z,1029.6
2023-03-30T17:02:45.863Z,1029.6
2023-03-30T17:04:45.955Z,1029.6
2023-03-30T17:06:45.855Z,1029.6
2023-03-30T17:08:45.814Z,1029.6
2023-03-30T17:10:45.812Z,1029.6
2023-03-30T17:12:45.836Z,1029.6
2023-03-30T17:14:45.871Z,1029.5
2023-03-30T17:16:45.865Z,1029.5
2023-03-30T17:18:45.727Z,1029.5
2023-03-30T17:20:45.750Z,1029.4
2023-03-30T17:22:50.183Z,1029.5
2023-03-30T17:24:45.812Z,1029.5
2023-03-30T17:26:45.753Z,1029.4
2023-03-30T17:28:45.794Z,1029.4
2023-03-30T17:30:45.908Z,1029.4
2023-03-30T17:32:45.804Z,1029.4
2023-03-30T17:34:45.848Z,1029.4
2023-03-30T17:36:45.740Z,1029.4
2023-03-30T17:38:45.813Z,1029.4
2023-03-30T17:40:45.753Z,1029.3
2023-03-30T17:42:45.779Z,1029.3
2023-03-30T17:44:45.732Z,1029.3
2023-03-30T17:46:45.832Z,1029.3
2023-03-30T17:48:45.787Z,1029.3
2023-03-30T17:50:45.804Z,1029.3
2023-03-30T17:52:45.734Z,1029.3
2023-03-30T17:54:45.795Z,1029.3
2023-03-30T17:56:45.747Z,1029.3
2023-03-30T17:58:45.838Z,1029.2
2023-03-30T18:00:45.729Z,1029.2
2023-03-30T18:02:45.845Z,1029.2
2023-03-30T18:04:45.771Z,1029.2
2023-03-30T18:07:01.954Z,1029.2
2023-03-30T18:08:45.809Z,1029.2
2023-03-30T18:10:45.791Z,1029.1
2023-03-30T18:12:34.993Z,1029.1
2023-03-30T18:12:45.640Z,1029.2
2023-03-30T18:14:45.845Z,1029.1
2023-03-30T18:16:46.085Z,1029.1
2023-03-30T18:18:45.720Z,1029.1
2023-03-30T18:20:45.710Z,1029
2023-03-30T18:22:45.834Z,1029
2023-03-30T18:24:45.730Z,1029.1
2023-03-30T18:26:45.751Z,1029
2023-03-30T18:28:45.703Z,1029
2023-03-30T18:30:45.728Z,1029
2023-03-30T18:32:47.537Z,1029
2023-03-30T18:34:45.710Z,1028.9
2023-03-30T18:36:45.707Z,1028.9
2023-03-30T18:38:45.811Z,1028.9
2023-03-30T18:40:45.690Z,1028.9
2023-03-30T18:42:45.664Z,1028.9
2023-03-30T18:44:45.671Z,1028.9
2023-03-30T18:46:45.694Z,1028.9
2023-03-30T18:48:45.733Z,1028.9
2023-03-30T18:49:56.130Z,1028.9
2023-03-30T18:52:45.683Z,1028.9
2023-03-30T18:54:45.778Z,1028.9
2023-03-30T18:56:45.745Z,1028.9
2023-03-30T18:58:45.694Z,1028.8
2023-03-30T19:00:45.666Z,1028.8
2023-03-30T19:02:45.702Z,1028.8
2023-03-30T19:04:45.690Z,1028.8
2023-03-30T19:06:45.600Z,1028.7
2023-03-30T19:08:45.681Z,1028.7
2023-03-30T19:10:45.675Z,1028.6
2023-03-30T19:12:45.716Z,1028.6
2023-03-30T19:14:45.667Z,1028.6
2023-03-30T19:15:55.794Z,1028.6
2023-03-30T19:18:45.732Z,1028.6
2023-03-30T19:20:45.837Z,1028.5
2023-03-30T19:22:45.632Z,1028.6
2023-03-30T19:24:45.615Z,1028.6
2023-03-30T19:26:45.622Z,1028.5
2023-03-30T19:28:45.661Z,1028.6
2023-03-30T19:30:45.682Z,1028.6
2023-03-30T19:32:45.666Z,1028.5
2023-03-30T19:34:45.663Z,1028.5
2023-03-30T19:36:45.677Z,1028.5
2023-03-30T19:38:45.656Z,1028.4
2023-03-30T19:40:45.604Z,1028.4
2023-03-30T19:42:45.614Z,1028.4
2023-03-30T19:44:45.649Z,1028.3
2023-03-30T19:46:45.738Z,1028.3
2023-03-30T19:48:45.606Z,1028.3
2023-03-30T19:50:45.565Z,1028.4
2023-03-30T19:52:45.616Z,1028.4
2023-03-30T19:54:18.323Z,1028.4
2023-03-30T19:56:03.768Z,1028.3
2023-03-30T19:56:45.601Z,1028.3
2023-03-30T19:58:45.567Z,1028.3
2023-03-30T20:00:45.610Z,1028.3
2023-03-30T20:02:45.737Z,1028.3
2023-03-30T20:04:45.587Z,1028.3
2023-03-30T20:06:45.626Z,1028.3
2023-03-30T20:08:45.604Z,1028.3
2023-03-30T20:10:45.520Z,1028.2
2023-03-30T20:12:45.545Z,1028.2
2023-03-30T20:14:45.575Z,1028.2
2023-03-30T20:16:50.685Z,1028.2
2023-03-30T20:16:58.622Z,1028.2
2023-03-30T20:18:45.693Z,1028.2
2023-03-30T20:20:45.534Z,1028.2
2023-03-30T20:22:45.572Z,1028.2
2023-03-30T20:24:45.558Z,1028.2
2023-03-30T20:26:45.553Z,1028.2
2023-03-30T20:28:45.557Z,1028.2
2023-03-30T20:30:45.536Z,1028.2
2023-03-30T20:32:53.153Z,1028.1
2023-03-30T20:34:38.545Z,1028.1
2023-03-30T20:36:45.558Z,1028.1
2023-03-30T20:38:45.602Z,1028.1
2023-03-30T20:40:45.575Z,1028.1
2023-03-30T20:42:45.553Z,1028.1
2023-03-30T20:44:45.657Z,1028.1
2023-03-30T20:46:45.613Z,1028
2023-03-30T20:48:45.576Z,1028.1
2023-03-30T20:50:45.615Z,1028.1
2023-03-30T20:52:45.542Z,1028.1
2023-03-30T20:55:00.422Z,1028.1
2023-03-30T20:56:45.534Z,1028.2
2023-03-30T20:59:17.563Z,1028.2
2023-03-30T21:00:45.562Z,1028.2
2023-03-30T21:02:06.857Z,1028.2
2023-03-30T21:02:55.935Z,1028.1
2023-03-30T21:04:47.583Z,1028.2
2023-03-30T21:06:45.501Z,1028.2
2023-03-30T21:08:45.577Z,1028.1
2023-03-30T21:10:45.542Z,1028.2
2023-03-30T21:12:45.507Z,1028.2
2023-03-30T21:14:45.487Z,1028.2
2023-03-30T21:16:45.529Z,1028.2
2023-03-30T21:19:01.255Z,1028.3
2023-03-30T21:20:45.492Z,1028.2
2023-03-30T21:22:45.509Z,1028.3
2023-03-30T21:24:45.582Z,1028.2
2023-03-30T21:26:45.495Z,1028.3
2023-03-30T21:28:04.848Z,1028.3
2023-03-30T21:28:45.463Z,1028.2
2023-03-30T21:30:28.303Z,1028.2
2023-03-30T21:32:45.561Z,1028.3
2023-03-30T21:34:45.504Z,1028.2
2023-03-30T21:36:45.607Z,1028.3
2023-03-30T21:38:45.518Z,1028.3
2023-03-30T21:40:45.505Z,1028.3
2023-03-30T21:42:45.456Z,1028.2
2023-03-30T21:44:41.256Z,1028.2
2023-03-30T21:46:45.515Z,1028.3
2023-03-30T21:48:45.487Z,1028.3
2023-03-30T21:50:45.464Z,1028.3
2023-03-30T21:52:45.481Z,1028.3
2023-03-30T21:54:45.436Z,1028.3
2023-03-30T21:56:45.466Z,1028.3
2023-03-30T21:58:45.505Z,1028.3
2023-03-30T22:00:45.522Z,1028.3
2023-03-30T22:02:45.737Z,1028.4
2023-03-30T22:04:45.487Z,1028.4
2023-03-30T22:06:45.536Z,1028.4
2023-03-30T22:08:45.585Z,1028.4
2023-03-30T22:10:45.386Z,1028.4
2023-03-30T22:12:45.428Z,1028.4
2023-03-30T22:14:45.452Z,1028.4
2023-03-30T22:16:45.504Z,1028.4
2023-03-30T22:18:55.423Z,1028.4
2023-03-30T22:20:45.362Z,1028.4
2023-03-30T22:22:45.335Z,1028.4
2023-03-30T22:24:45.431Z,1028.5
2023-03-30T22:26:45.393Z,1028.6
2023-03-30T22:28:45.419Z,1028.6
2023-03-30T22:30:45.439Z,1028.7
2023-03-30T22:32:45.461Z,1028.7
2023-03-30T22:34:45.443Z,1028.8
2023-03-30T22:36:45.388Z,1028.8
2023-03-30T22:38:45.448Z,1028.8
2023-03-30T22:40:45.509Z,1028.7
2023-03-30T22:42:45.391Z,1028.8
2023-03-30T22:44:45.419Z,1028.8
2023-03-30T22:46:45.494Z,1028.9
2023-03-30T22:48:45.412Z,1028.9
2023-03-30T22:50:45.458Z,1028.9
2023-03-30T22:52:45.408Z,1028.9
2023-03-30T22:54:45.500Z,1029
2023-03-30T22:56:45.420Z,1029
2023-03-30T22:58:45.398Z,1029
2023-03-30T23:00:45.437Z,1029.1
2023-03-30T23:02:45.490Z,1029
2023-03-30T23:04:45.425Z,1029
2023-03-30T23:06:45.442Z,1029
2023-03-30T23:08:45.418Z,1029
2023-03-30T23:10:45.468Z,1028.9
2023-03-30T23:12:45.460Z,1029
2023-03-30T23:14:45.443Z,1029.1
2023-03-30T23:16:45.463Z,1029.2
2023-03-30T23:18:40.977Z,1029.2
2023-03-30T23:20:45.378Z,1029.2
2023-03-30T23:22:45.370Z,1029.2
2023-03-30T23:25:15.677Z,1029.2
2023-03-30T23:26:45.488Z,1029.2
2023-03-30T23:28:49.120Z,1029.2
2023-03-30T23:30:45.463Z,1029.2
2023-03-30T23:32:45.351Z,1029.2
2023-03-30T23:34:45.441Z,1029.2
2023-03-30T23:35:46.913Z,1029.2
2023-03-30T23:38:45.325Z,1029.3
2023-03-30T23:40:45.341Z,1029.3
2023-03-30T23:43:05.852Z,1029.3
2023-03-30T23:44:45.359Z,1029.3
2023-03-30T23:46:45.348Z,1029.3
2023-03-30T23:48:45.387Z,1029.4
2023-03-30T23:50:45.341Z,1029.4
2023-03-30T23:52:45.343Z,1029.4
2023-03-30T23:54:45.359Z,1029.4
2023-03-30T23:56:45.338Z,1029.4
2023-03-30T23:58:45.335Z,1029.4
